createdAt,value
2018-02-24T00:00:35.365Z,38.41
2018-02-24T00:01:35.373Z,38.4
2018-02-24T00:02:35.360Z,38.39
2018-02-24T00:03:35.357Z,38.39
2018-02-24T00:04:35.346Z,38.41
2018-02-24T00:05:35.346Z,38.39
2018-02-24T00:06:35.354Z,38.39
2018-02-24T00:07:35.388Z,38.39
2018-02-24T00:08:35.358Z,38.36
2018-02-24T00:09:35.367Z,38.44
2018-02-24T00:10:35.351Z,38.37
2018-02-24T00:11:35.375Z,38.37
2018-02-24T00:12:35.358Z,38.36
2018-02-24T00:13:35.360Z,38.45
2018-02-24T00:14:35.994Z,38.44
2018-02-24T00:15:35.365Z,38.45
2018-02-24T00:16:35.343Z,38.45
2018-02-24T00:17:35.373Z,38.41
2018-02-24T00:18:35.356Z,38.38
2018-02-24T00:19:35.336Z,38.38
2018-02-24T00:20:35.358Z,38.44
2018-02-24T00:21:35.362Z,38.44
2018-02-24T00:22:35.344Z,38.41
2018-02-24T00:23:35.359Z,38.39
2018-02-24T00:24:35.358Z,38.38
2018-02-24T00:25:35.340Z,38.43
2018-02-24T00:26:35.624Z,38.42
2018-02-24T00:27:35.377Z,38.38
2018-02-24T00:28:35.340Z,38.44
2018-02-24T00:29:35.332Z,38.41
2018-02-24T00:30:35.390Z,38.44
2018-02-24T00:31:35.361Z,38.39
2018-02-24T00:32:35.352Z,38.45
2018-02-24T00:33:35.337Z,38.43
2018-02-24T00:34:35.359Z,38.43
2018-02-24T00:35:35.346Z,38.4
2018-02-24T00:36:35.350Z,38.43
2018-02-24T00:37:35.343Z,38.46
2018-02-24T00:38:35.342Z,38.44
2018-02-24T00:39:35.353Z,38.42
2018-02-24T00:40:35.339Z,38.37
2018-02-24T00:41:35.361Z,38.43
2018-02-24T00:42:35.337Z,38.45
2018-02-24T00:43:35.352Z,38.44
2018-02-24T00:44:35.352Z,38.45
2018-02-24T00:45:35.338Z,38.45
2018-02-24T00:46:35.340Z,38.41
2018-02-24T00:47:35.328Z,38.39
2018-02-24T00:48:35.339Z,38.34
2018-02-24T00:49:35.346Z,38.38
2018-02-24T00:50:35.321Z,38.4
2018-02-24T00:51:35.338Z,38.37
2018-02-24T00:52:35.344Z,38.41
2018-02-24T00:53:35.336Z,38.36
2018-02-24T00:54:35.713Z,38.43
2018-02-24T00:55:35.367Z,38.43
2018-02-24T00:56:35.353Z,38.43
2018-02-24T00:57:35.437Z,38.38
2018-02-24T00:58:35.338Z,38.41
2018-02-24T00:59:35.362Z,38.33
2018-02-24T01:00:35.333Z,38.36
2018-02-24T01:01:35.360Z,38.42
2018-02-24T01:02:35.339Z,38.39
2018-02-24T01:03:35.357Z,38.41
2018-02-24T01:04:35.375Z,38.44
2018-02-24T01:05:35.953Z,38.39
2018-02-24T01:06:35.336Z,38.39
2018-02-24T01:07:35.323Z,38.35
2018-02-24T01:08:35.347Z,38.38
2018-02-24T01:09:35.352Z,38.43
2018-02-24T01:10:35.345Z,38.39
2018-02-24T01:11:35.345Z,38.38
2018-02-24T01:12:35.329Z,38.39
2018-02-24T01:13:35.433Z,38.37
2018-02-24T01:14:35.398Z,38.41
2018-02-24T01:15:35.332Z,38.4
2018-02-24T01:16:35.337Z,38.39
2018-02-24T01:17:35.385Z,38.36
2018-02-24T01:18:35.337Z,38.36
2018-02-24T01:19:35.413Z,38.42
2018-02-24T01:20:35.336Z,38.32
2018-02-24T01:21:35.326Z,38.4
2018-02-24T01:22:35.335Z,38.41
2018-02-24T01:23:35.342Z,38.37
2018-02-24T01:24:35.342Z,38.4
2018-02-24T01:25:35.320Z,38.38
2018-02-24T01:26:35.350Z,38.41
2018-02-24T01:27:35.327Z,38.38
2018-02-24T01:28:35.332Z,38.36
2018-02-24T01:29:35.328Z,38.34
2018-02-24T01:30:35.328Z,38.38
2018-02-24T01:31:35.373Z,38.32
2018-02-24T01:32:35.313Z,38.34
2018-02-24T01:33:35.325Z,38.35
2018-02-24T01:34:35.329Z,38.37
2018-02-24T01:35:35.338Z,38.34
2018-02-24T01:36:35.309Z,38.34
2018-02-24T01:37:35.381Z,38.36
2018-02-24T01:38:35.338Z,38.35
2018-02-24T01:39:35.315Z,38.3
2018-02-24T01:40:35.339Z,38.34
2018-02-24T01:41:35.317Z,38.38
2018-02-24T01:42:35.333Z,38.34
2018-02-24T01:43:35.328Z,38.38
2018-02-24T01:44:35.317Z,38.35
2018-02-24T01:45:35.338Z,38.35
2018-02-24T01:46:35.334Z,38.34
2018-02-24T01:47:35.316Z,38.33
2018-02-24T01:48:35.305Z,38.34
2018-02-24T01:49:35.323Z,38.31
2018-02-24T01:50:35.310Z,38.33
2018-02-24T01:51:35.350Z,38.35
2018-02-24T01:52:35.314Z,38.37
2018-02-24T01:53:35.326Z,38.31
2018-02-24T01:54:35.451Z,38.3
2018-02-24T01:55:35.399Z,38.32
2018-02-24T01:56:35.592Z,38.35
2018-02-24T01:57:35.319Z,38.31
2018-02-24T01:58:35.311Z,38.31
2018-02-24T01:59:35.309Z,38.32
2018-02-24T02:00:35.321Z,38.31
2018-02-24T02:01:35.345Z,38.32
2018-02-24T02:02:35.322Z,38.33
2018-02-24T02:03:35.334Z,38.35
2018-02-24T02:04:35.380Z,38.33
2018-02-24T02:05:35.316Z,38.3
2018-02-24T02:06:35.326Z,38.37
2018-02-24T02:07:35.302Z,38.37
2018-02-24T02:08:35.314Z,38.33
2018-02-24T02:09:35.295Z,38.36
2018-02-24T02:10:35.326Z,38.33
2018-02-24T02:11:35.314Z,38.28
2018-02-24T02:12:35.332Z,38.3
2018-02-24T02:13:35.335Z,38.37
2018-02-24T02:14:35.311Z,38.3
2018-02-24T02:15:35.310Z,38.36
2018-02-24T02:16:35.300Z,38.34
2018-02-24T02:17:35.313Z,38.35
2018-02-24T02:18:35.324Z,38.37
2018-02-24T02:19:35.301Z,38.34
2018-02-24T02:20:35.301Z,38.28
2018-02-24T02:21:35.311Z,38.31
2018-02-24T02:22:35.596Z,38.33
2018-02-24T02:23:35.318Z,38.31
2018-02-24T02:24:35.361Z,38.28
2018-02-24T02:25:35.302Z,38.31
2018-02-24T02:26:35.324Z,38.32
2018-02-24T02:27:35.319Z,38.33
2018-02-24T02:28:35.315Z,38.3
2018-02-24T02:29:35.322Z,38.26
2018-02-24T02:30:35.356Z,38.25
2018-02-24T02:31:35.335Z,38.26
2018-02-24T02:32:35.375Z,38.28
2018-02-24T02:33:35.332Z,38.28
2018-02-24T02:34:35.330Z,38.28
2018-02-24T02:35:35.305Z,38.3
2018-02-24T02:36:35.315Z,38.32
2018-02-24T02:37:35.403Z,38.3
2018-02-24T02:38:35.328Z,38.28
2018-02-24T02:39:35.313Z,38.25
2018-02-24T02:40:35.306Z,38.34
2018-02-24T02:41:35.325Z,38.3
2018-02-24T02:42:35.310Z,38.27
2018-02-24T02:43:35.339Z,38.29
2018-02-24T02:44:35.341Z,38.22
2018-02-24T02:45:35.313Z,38.2
2018-02-24T02:46:35.297Z,38.25
2018-02-24T02:47:35.338Z,38.32
2018-02-24T02:48:35.608Z,38.24
2018-02-24T02:49:35.309Z,38.28
2018-02-24T02:50:35.307Z,38.24
2018-02-24T02:51:35.310Z,38.27
2018-02-24T02:52:35.325Z,38.28
2018-02-24T02:53:35.389Z,38.27
2018-02-24T02:54:35.309Z,38.28
2018-02-24T02:55:35.322Z,38.3
2018-02-24T02:56:35.305Z,38.28
2018-02-24T02:57:35.303Z,38.27
2018-02-24T02:58:35.341Z,38.23
2018-02-24T02:59:35.314Z,38.28
2018-02-24T03:00:35.317Z,38.25
2018-02-24T03:01:35.295Z,38.27
2018-02-24T03:02:35.281Z,38.25
2018-02-24T03:03:35.406Z,38.33
2018-02-24T03:04:35.302Z,38.26
2018-02-24T03:05:35.293Z,38.21
2018-02-24T03:06:35.321Z,38.26
2018-02-24T03:07:35.302Z,38.16
2018-02-24T03:08:35.326Z,38.26
2018-02-24T03:09:35.278Z,38.2
2018-02-24T03:10:35.340Z,38.23
2018-02-24T03:11:35.309Z,38.24
2018-02-24T03:12:35.300Z,38.23
2018-02-24T03:13:35.324Z,38.26
2018-02-24T03:14:35.296Z,38.26
2018-02-24T03:15:35.326Z,38.21
2018-02-24T03:16:35.298Z,38.25
2018-02-24T03:17:35.318Z,38.14
2018-02-24T03:18:35.282Z,38.25
2018-02-24T03:19:35.503Z,38.22
2018-02-24T03:20:35.289Z,38.21
2018-02-24T03:21:35.292Z,38.18
2018-02-24T03:22:35.276Z,38.22
2018-02-24T03:23:35.281Z,38.22
2018-02-24T03:24:35.291Z,38.25
2018-02-24T03:25:35.281Z,38.19
2018-02-24T03:26:35.283Z,38.22
2018-02-24T03:27:35.285Z,38.25
2018-02-24T03:28:35.274Z,38.23
2018-02-24T03:29:35.321Z,38.23
2018-02-24T03:30:35.321Z,38.19
2018-02-24T03:31:35.706Z,38.18
2018-02-24T03:32:35.297Z,38.15
2018-02-24T03:33:35.283Z,38.27
2018-02-24T03:34:35.304Z,38.18
2018-02-24T03:35:35.300Z,38.21
2018-02-24T03:36:35.279Z,38.22
2018-02-24T03:37:35.264Z,38.15
2018-02-24T03:38:35.270Z,38.2
2018-02-24T03:39:35.312Z,38.19
2018-02-24T03:40:35.303Z,38.19
2018-02-24T03:41:35.279Z,38.18
2018-02-24T03:42:35.293Z,38.19
2018-02-24T03:43:35.276Z,38.25
2018-02-24T03:44:35.316Z,38.19
2018-02-24T03:45:35.279Z,38.18
2018-02-24T03:46:35.557Z,38.19
2018-02-24T03:47:35.282Z,38.18
2018-02-24T03:48:35.277Z,38.15
2018-02-24T03:49:35.279Z,38.14
2018-02-24T03:50:35.284Z,38.19
2018-02-24T03:51:35.302Z,38.19
2018-02-24T03:52:35.256Z,38.21
2018-02-24T03:53:35.272Z,38.19
2018-02-24T03:54:35.275Z,38.19
2018-02-24T03:55:35.355Z,38.19
2018-02-24T03:56:35.392Z,38.16
2018-02-24T03:57:35.282Z,38.18
2018-02-24T03:58:35.274Z,38.23
2018-02-24T03:59:35.280Z,38.23
2018-02-24T04:00:35.517Z,38.18
2018-02-24T04:01:35.266Z,38.21
2018-02-24T04:02:35.271Z,38.15
2018-02-24T04:03:35.290Z,38.16
2018-02-24T04:04:35.278Z,38.22
2018-02-24T04:05:35.304Z,38.21
2018-02-24T04:06:35.368Z,38.15
2018-02-24T04:07:35.268Z,38.13
2018-02-24T04:08:35.273Z,38.18
2018-02-24T04:09:35.250Z,38.13
2018-02-24T04:10:35.312Z,38.14
2018-02-24T04:11:35.273Z,38.17
2018-02-24T04:12:35.261Z,38.14
2018-02-24T04:13:35.269Z,38.1
2018-02-24T04:14:35.360Z,38.2
2018-02-24T04:15:35.307Z,38.16
2018-02-24T04:16:35.541Z,38.13
2018-02-24T04:17:35.277Z,38.17
2018-02-24T04:18:35.244Z,38.12
2018-02-24T04:19:35.286Z,38.14
2018-02-24T04:20:35.300Z,38.17
2018-02-24T04:21:35.326Z,38.17
2018-02-24T04:22:35.368Z,38.15
2018-02-24T04:23:35.296Z,38.1
2018-02-24T04:24:35.260Z,38.02
2018-02-24T04:25:35.311Z,38.1
2018-02-24T04:26:35.244Z,38.14
2018-02-24T04:27:35.261Z,38.15
2018-02-24T04:28:35.295Z,38.16
2018-02-24T04:29:35.273Z,38.28
2018-02-24T04:30:35.303Z,38.22
2018-02-24T04:31:35.262Z,38.18
2018-02-24T04:32:35.263Z,38.15
2018-02-24T04:33:35.266Z,38.15
2018-02-24T04:34:35.275Z,38.17
2018-02-24T04:35:35.289Z,38.14
2018-02-24T04:36:35.300Z,38.14
2018-02-24T04:37:35.304Z,38.12
2018-02-24T04:38:35.264Z,38.08
2018-02-24T04:39:35.256Z,38.13
2018-02-24T04:40:35.327Z,38.1
2018-02-24T04:41:35.254Z,38.17
2018-02-24T04:42:35.269Z,38.11
2018-02-24T04:43:35.280Z,38.14
2018-02-24T04:44:35.297Z,38.15
2018-02-24T04:45:35.235Z,38.19
2018-02-24T04:46:35.261Z,38.17
2018-02-24T04:47:35.253Z,38.14
2018-02-24T04:48:35.268Z,38.18
2018-02-24T04:49:35.252Z,38.16
2018-02-24T04:50:35.272Z,38.19
2018-02-24T04:51:35.261Z,38.06
2018-02-24T04:52:35.250Z,38.14
2018-02-24T04:53:35.293Z,38.17
2018-02-24T04:54:35.282Z,38.12
2018-02-24T04:55:35.272Z,38.15
2018-02-24T04:56:35.246Z,38.13
2018-02-24T04:57:35.290Z,38.09
2018-02-24T04:58:35.290Z,38.07
2018-02-24T04:59:35.256Z,38.17
2018-02-24T05:00:35.237Z,38.16
2018-02-24T05:01:35.266Z,38.09
2018-02-24T05:02:35.281Z,38.14
2018-02-24T05:03:35.276Z,38.1
2018-02-24T05:04:35.228Z,38.19
2018-02-24T05:05:35.254Z,38.17
2018-02-24T05:06:35.261Z,38.25
2018-02-24T05:07:35.254Z,38.26
2018-02-24T05:08:35.251Z,38.38
2018-02-24T05:09:35.254Z,38.38
2018-02-24T05:10:35.290Z,38.3
2018-02-24T05:11:35.246Z,38.35
2018-02-24T05:12:35.245Z,38.39
2018-02-24T05:13:35.259Z,38.4
2018-02-24T05:14:35.260Z,38.4
2018-02-24T05:15:35.257Z,38.52
2018-02-24T05:16:35.252Z,38.66
2018-02-24T05:17:35.251Z,38.63
2018-02-24T05:18:35.242Z,38.64
2018-02-24T05:19:35.239Z,38.56
2018-02-24T05:20:35.295Z,38.69
2018-02-24T05:21:35.253Z,38.8
2018-02-24T05:22:35.234Z,38.75
2018-02-24T05:23:35.253Z,38.84
2018-02-24T05:24:35.240Z,38.89
2018-02-24T05:25:35.254Z,38.65
2018-02-24T05:26:35.234Z,38.74
2018-02-24T05:27:35.575Z,38.73
2018-02-24T05:28:35.260Z,38.78
2018-02-24T05:29:35.208Z,38.81
2018-02-24T05:30:35.240Z,38.78
2018-02-24T05:31:35.243Z,38.63
2018-02-24T05:32:35.277Z,38.66
2018-02-24T05:33:35.228Z,38.68
2018-02-24T05:34:35.226Z,38.61
2018-02-24T05:35:35.229Z,38.57
2018-02-24T05:36:35.253Z,38.52
2018-02-24T05:37:35.230Z,38.56
2018-02-24T05:38:35.238Z,38.56
2018-02-24T05:39:35.225Z,38.56
2018-02-24T05:40:35.230Z,38.55
2018-02-24T05:41:35.236Z,38.52
2018-02-24T05:42:35.241Z,38.53
2018-02-24T05:43:35.501Z,38.48
2018-02-24T05:44:35.254Z,38.5
2018-02-24T05:45:35.256Z,38.51
2018-02-24T05:46:35.234Z,38.51
2018-02-24T05:47:35.231Z,38.51
2018-02-24T05:48:35.260Z,38.47
2018-02-24T05:49:35.249Z,38.51
2018-02-24T05:50:35.234Z,38.55
2018-02-24T05:51:35.296Z,38.52
2018-02-24T05:52:35.227Z,38.47
2018-02-24T05:53:35.206Z,38.53
2018-02-24T05:54:35.248Z,38.53
2018-02-24T05:55:35.250Z,38.48
2018-02-24T05:56:35.364Z,38.5
2018-02-24T05:57:35.754Z,38.45
2018-02-24T05:58:35.260Z,38.47
2018-02-24T05:59:35.261Z,38.46
2018-02-24T06:00:35.236Z,38.5
2018-02-24T06:01:35.239Z,38.52
2018-02-24T06:02:35.216Z,38.53
2018-02-24T06:03:35.240Z,38.49
2018-02-24T06:04:35.495Z,38.49
2018-02-24T06:05:35.230Z,38.48
2018-02-24T06:06:35.230Z,38.49
2018-02-24T06:07:35.689Z,38.49
2018-02-24T06:08:35.221Z,38.45
2018-02-24T06:09:35.264Z,38.5
2018-02-24T06:10:35.253Z,38.5
2018-02-24T06:11:35.212Z,38.53
2018-02-24T06:12:35.227Z,38.49
2018-02-24T06:13:35.228Z,38.47
2018-02-24T06:14:35.241Z,38.42
2018-02-24T06:15:35.215Z,38.46
2018-02-24T06:16:35.208Z,38.46
2018-02-24T06:17:35.211Z,38.44
2018-02-24T06:18:35.289Z,38.44
2018-02-24T06:19:35.240Z,38.43
2018-02-24T06:20:35.225Z,38.35
2018-02-24T06:21:35.227Z,38.42
2018-02-24T06:22:35.224Z,38.46
2018-02-24T06:23:35.214Z,38.41
2018-02-24T06:24:35.250Z,38.45
2018-02-24T06:25:35.242Z,38.42
2018-02-24T06:26:35.229Z,38.45
2018-02-24T06:27:35.195Z,38.4
2018-02-24T06:28:35.210Z,38.4
2018-02-24T06:29:35.234Z,38.38
2018-02-24T06:30:35.208Z,38.31
2018-02-24T06:31:35.221Z,38.32
2018-02-24T06:32:35.239Z,38.42
2018-02-24T06:33:35.232Z,38.34
2018-02-24T06:34:35.488Z,38.39
2018-02-24T06:35:35.226Z,38.26
2018-02-24T06:36:35.219Z,38.34
2018-02-24T06:37:35.218Z,38.34
2018-02-24T06:38:35.202Z,38.25
2018-02-24T06:39:35.653Z,38.35
2018-02-24T06:40:35.262Z,38.37
2018-02-24T06:41:35.215Z,38.46
2018-02-24T06:42:35.224Z,38.45
2018-02-24T06:43:35.217Z,38.37
2018-02-24T06:44:35.247Z,38.99
2018-02-24T06:45:35.252Z,39.17
2018-02-24T06:46:35.194Z,39.06
2018-02-24T06:47:35.206Z,39.07
2018-02-24T06:48:35.211Z,39.15
2018-02-24T06:49:35.246Z,39.18
2018-02-24T06:50:35.204Z,39.17
2018-02-24T06:51:35.211Z,39.28
2018-02-24T06:52:35.074Z,39.04
2018-02-24T06:53:35.232Z,39.27
2018-02-24T06:54:35.234Z,39.17
2018-02-24T06:55:35.211Z,39.11
2018-02-24T06:56:35.202Z,39.12
2018-02-24T06:57:35.218Z,39.1
2018-02-24T06:58:35.200Z,39.1
2018-02-24T06:59:35.505Z,39.03
2018-02-24T07:00:35.201Z,39.03
2018-02-24T07:01:35.230Z,39.01
2018-02-24T07:02:35.209Z,39
2018-02-24T07:03:35.221Z,39
2018-02-24T07:04:35.237Z,38.99
2018-02-24T07:05:35.220Z,38.63
2018-02-24T07:06:35.199Z,38.69
2018-02-24T07:07:35.199Z,38.73
2018-02-24T07:08:35.191Z,38.8
2018-02-24T07:09:35.230Z,38.78
2018-02-24T07:10:35.220Z,38.71
2018-02-24T07:11:35.190Z,38.65
2018-02-24T07:12:35.191Z,38.6
2018-02-24T07:13:35.215Z,38.69
2018-02-24T07:14:35.285Z,38.57
2018-02-24T07:15:35.212Z,38.52
2018-02-24T07:16:35.197Z,38.59
2018-02-24T07:17:35.251Z,38.54
2018-02-24T07:18:35.186Z,38.48
2018-02-24T07:19:35.476Z,38.63
2018-02-24T07:20:35.240Z,38.5
2018-02-24T07:21:35.205Z,38.54
2018-02-24T07:22:35.205Z,38.42
2018-02-24T07:23:35.291Z,38.49
2018-02-24T07:24:35.223Z,38.38
2018-02-24T07:25:35.216Z,38.61
2018-02-24T07:26:35.197Z,38.44
2018-02-24T07:27:35.194Z,38.5
2018-02-24T07:28:35.199Z,38.44
2018-02-24T07:29:35.224Z,38.46
2018-02-24T07:30:35.195Z,38.42
2018-02-24T07:31:35.304Z,38.43
2018-02-24T07:32:35.192Z,38.4
2018-02-24T07:33:35.206Z,38.44
2018-02-24T07:34:35.228Z,38.32
2018-02-24T07:35:35.206Z,38.44
2018-02-24T07:36:35.201Z,38.33
2018-02-24T07:37:35.197Z,38.36
2018-02-24T07:38:35.462Z,38.38
2018-02-24T07:39:35.195Z,38.37
2018-02-24T07:40:35.194Z,38.39
2018-02-24T07:41:35.205Z,38.34
2018-02-24T07:42:35.228Z,38.39
2018-02-24T07:43:35.224Z,38.3
2018-02-24T07:44:35.204Z,38.12
2018-02-24T07:45:35.180Z,38.29
2018-02-24T07:46:35.218Z,38.33
2018-02-24T07:47:35.190Z,38.14
2018-02-24T07:48:35.206Z,38.24
2018-02-24T07:49:35.268Z,38.2
2018-02-24T07:50:35.464Z,38.33
2018-02-24T07:51:35.186Z,38.29
2018-02-24T07:52:35.186Z,38.33
2018-02-24T07:53:35.220Z,38.25
2018-02-24T07:54:35.227Z,38.3
2018-02-24T07:55:35.216Z,38.23
2018-02-24T07:56:35.205Z,38.27
2018-02-24T07:57:35.297Z,38.18
2018-02-24T07:58:35.195Z,38.35
2018-02-24T07:59:35.188Z,38.27
2018-02-24T08:00:35.182Z,38.31
2018-02-24T08:01:35.200Z,38.14
2018-02-24T08:02:35.184Z,38.09
2018-02-24T08:03:35.191Z,38.09
2018-02-24T08:04:35.185Z,38.21
2018-02-24T08:05:35.205Z,38.13
2018-02-24T08:06:35.223Z,38.17
2018-02-24T08:07:35.196Z,38.17
2018-02-24T08:08:35.190Z,38.09
2018-02-24T08:09:35.172Z,38.21
2018-02-24T08:10:35.476Z,38.04
2018-02-24T08:11:35.207Z,38.13
2018-02-24T08:12:35.180Z,38.05
2018-02-24T08:13:35.190Z,38.24
2018-02-24T08:14:35.188Z,39.09
2018-02-24T08:15:35.193Z,38.49
2018-02-24T08:16:35.175Z,38.39
2018-02-24T08:17:35.606Z,38.53
2018-02-24T08:18:35.182Z,38.87
2018-02-24T08:19:35.173Z,38.91
2018-02-24T08:20:35.165Z,39.03
2018-02-24T08:21:35.196Z,39.28
2018-02-24T08:22:35.173Z,39.2
2018-02-24T08:23:35.169Z,39.39
2018-02-24T08:24:35.167Z,39.38
2018-02-24T08:25:35.457Z,39.41
2018-02-24T08:26:35.196Z,39.28
2018-02-24T08:27:35.186Z,39.36
2018-02-24T08:28:35.165Z,39.35
2018-02-24T08:29:35.168Z,39.24
2018-02-24T08:30:35.207Z,39.29
2018-02-24T08:31:35.213Z,39.31
2018-02-24T08:32:35.208Z,38.88
2018-02-24T08:33:35.192Z,38.81
2018-02-24T08:34:35.183Z,38.9
2018-02-24T08:35:35.169Z,38.92
2018-02-24T08:36:35.183Z,38.88
2018-02-24T08:37:35.348Z,38.62
2018-02-24T08:38:35.339Z,38.82
2018-02-24T08:39:35.321Z,38.76
2018-02-24T08:40:35.269Z,38.72
2018-02-24T08:41:35.194Z,38.82
2018-02-24T08:42:35.175Z,38.67
2018-02-24T08:43:35.189Z,38.77
2018-02-24T08:44:35.170Z,38.9
2018-02-24T08:45:35.185Z,38.9
2018-02-24T08:46:35.188Z,38.9
2018-02-24T08:47:35.184Z,38.84
2018-02-24T08:48:35.154Z,38.9
2018-02-24T08:49:35.164Z,38.9
2018-02-24T08:50:35.160Z,38.9
2018-02-24T08:51:35.200Z,38.84
2018-02-24T08:52:35.166Z,39.11
2018-02-24T08:53:35.167Z,38.83
2018-02-24T08:54:35.181Z,38.79
2018-02-24T08:55:35.159Z,38.83
2018-02-24T08:56:35.207Z,38.78
2018-02-24T08:57:35.180Z,38.95
2018-02-24T08:58:35.173Z,38.9
2018-02-24T08:59:35.186Z,38.9
2018-02-24T09:00:35.167Z,39.02
2018-02-24T09:01:35.164Z,39.25
2018-02-24T09:02:35.197Z,39.28
2018-02-24T09:03:35.216Z,39.19
2018-02-24T09:04:35.189Z,39.16
2018-02-24T09:05:35.151Z,39.08
2018-02-24T09:06:35.166Z,39.19
2018-02-24T09:07:35.446Z,38.7
2018-02-24T09:08:35.156Z,38.93
2018-02-24T09:09:35.166Z,38.95
2018-02-24T09:10:35.169Z,38.97
2018-02-24T09:11:35.181Z,38.87
2018-02-24T09:12:35.166Z,38.88
2018-02-24T09:13:35.447Z,38.8
2018-02-24T09:14:35.203Z,38.79
2018-02-24T09:15:35.173Z,38.81
2018-02-24T09:16:35.164Z,38.62
2018-02-24T09:17:35.189Z,38.71
2018-02-24T09:18:35.170Z,38.56
2018-02-24T09:19:35.164Z,38.55
2018-02-24T09:20:35.161Z,38.5
2018-02-24T09:21:35.149Z,38.52
2018-02-24T09:22:35.204Z,38.49
2018-02-24T09:23:35.183Z,38.5
2018-02-24T09:24:35.167Z,38.42
2018-02-24T09:25:35.163Z,38.47
2018-02-24T09:26:35.145Z,38.37
2018-02-24T09:27:35.191Z,38.41
2018-02-24T09:28:35.172Z,38.38
2018-02-24T09:29:35.163Z,38.42
2018-02-24T09:30:35.162Z,38.34
2018-02-24T09:31:35.152Z,38.42
2018-02-24T09:32:35.198Z,38.25
2018-02-24T09:33:35.173Z,38.29
2018-02-24T09:34:35.157Z,38.2
2018-02-24T09:35:35.158Z,38.2
2018-02-24T09:36:35.177Z,38.16
2018-02-24T09:37:35.409Z,38.19
2018-02-24T09:38:35.180Z,38.13
2018-02-24T09:39:35.143Z,38.21
2018-02-24T09:40:35.153Z,38.24
2018-02-24T09:41:35.140Z,38.13
2018-02-24T09:42:35.189Z,38.18
2018-02-24T09:43:35.201Z,38.2
2018-02-24T09:44:35.151Z,38.04
2018-02-24T09:45:35.150Z,38.09
2018-02-24T09:46:35.136Z,38
2018-02-24T09:47:35.183Z,38.23
2018-02-24T09:48:35.168Z,38.13
2018-02-24T09:49:35.152Z,38.12
2018-02-24T09:50:35.436Z,37.98
2018-02-24T09:51:35.163Z,38.04
2018-02-24T09:52:35.168Z,37.93
2018-02-24T09:53:35.110Z,37.96
2018-02-24T09:54:35.145Z,37.94
2018-02-24T09:55:35.186Z,37.89
2018-02-24T09:56:35.159Z,37.85
2018-02-24T09:57:35.148Z,37.93
2018-02-24T09:58:35.259Z,37.93
2018-02-24T09:59:35.215Z,37.99
2018-02-24T10:00:35.189Z,37.97
2018-02-24T10:01:35.157Z,37.93
2018-02-24T10:02:35.150Z,37.85
2018-02-24T10:03:35.160Z,38.07
2018-02-24T10:04:35.174Z,37.88
2018-02-24T10:05:35.164Z,38.02
2018-02-24T10:06:35.143Z,37.88
2018-02-24T10:07:35.142Z,37.96
2018-02-24T10:08:35.172Z,37.96
2018-02-24T10:09:35.154Z,37.88
2018-02-24T10:10:35.168Z,37.77
2018-02-24T10:11:35.137Z,37.79
2018-02-24T10:12:35.134Z,37.85
2018-02-24T10:13:35.128Z,37.9
2018-02-24T10:14:35.145Z,37.92
2018-02-24T10:15:35.186Z,37.84
2018-02-24T10:16:35.154Z,37.85
2018-02-24T10:17:35.136Z,37.67
2018-02-24T10:18:35.139Z,37.79
2018-02-24T10:19:35.159Z,37.97
2018-02-24T10:20:35.192Z,37.91
2018-02-24T10:21:35.153Z,37.75
2018-02-24T10:22:35.135Z,37.74
2018-02-24T10:23:35.163Z,37.85
2018-02-24T10:24:35.154Z,37.71
2018-02-24T10:25:35.183Z,37.86
2018-02-24T10:26:35.151Z,37.75
2018-02-24T10:27:35.138Z,37.75
2018-02-24T10:28:35.147Z,37.83
2018-02-24T10:29:35.138Z,37.83
2018-02-24T10:30:35.238Z,37.9
2018-02-24T10:31:35.158Z,37.7
2018-02-24T10:32:35.142Z,37.68
2018-02-24T10:33:35.128Z,37.87
2018-02-24T10:34:35.185Z,37.66
2018-02-24T10:35:35.169Z,37.7
2018-02-24T10:36:35.121Z,37.85
2018-02-24T10:37:35.186Z,37.79
2018-02-24T10:38:35.142Z,37.88
2018-02-24T10:39:35.146Z,37.62
2018-02-24T10:40:35.230Z,37.81
2018-02-24T10:41:35.139Z,37.64
2018-02-24T10:42:35.179Z,37.76
2018-02-24T10:43:35.136Z,37.68
2018-02-24T10:44:35.125Z,37.64
2018-02-24T10:45:35.278Z,37.89
2018-02-24T10:46:35.125Z,37.68
2018-02-24T10:47:35.137Z,37.67
2018-02-24T10:48:35.586Z,37.76
2018-02-24T10:49:35.160Z,38.03
2018-02-24T10:50:35.141Z,37.92
2018-02-24T10:51:35.133Z,37.94
2018-02-24T10:52:35.160Z,37.94
2018-02-24T10:53:35.185Z,37.69
2018-02-24T10:54:35.135Z,37.09
2018-02-24T10:55:35.132Z,36.52
2018-02-24T10:56:35.223Z,36.37
2018-02-24T10:57:35.160Z,36.17
2018-02-24T10:58:35.142Z,36.42
2018-02-24T10:59:35.139Z,36
2018-02-24T11:00:35.139Z,36.25
2018-02-24T11:01:35.130Z,35.92
2018-02-24T11:02:35.126Z,35.56
2018-02-24T11:03:35.159Z,35.3
2018-02-24T11:04:35.116Z,35.13
2018-02-24T11:05:35.272Z,35.33
2018-02-24T11:06:35.119Z,35.04
2018-02-24T11:07:35.129Z,34.92
2018-02-24T11:08:35.215Z,35.52
2018-02-24T11:09:35.152Z,36.49
2018-02-24T11:10:35.129Z,36.49
2018-02-24T11:11:35.128Z,35.75
2018-02-24T11:12:35.234Z,33.62
2018-02-24T11:13:35.181Z,30.89
2018-02-24T11:14:35.452Z,31.14
2018-02-24T11:15:35.116Z,31.74
2018-02-24T11:16:35.124Z,33.04
2018-02-24T11:17:35.117Z,34.11
2018-02-24T11:18:35.129Z,34.79
2018-02-24T11:19:35.178Z,35.42
2018-02-24T11:20:35.135Z,35.69
2018-02-24T11:21:35.156Z,36.01
2018-02-24T11:22:35.107Z,36.49
2018-02-24T11:23:35.123Z,36.6
2018-02-24T11:24:35.128Z,36.65
2018-02-24T11:25:35.148Z,36.82
2018-02-24T11:26:35.129Z,36.98
2018-02-24T11:27:35.141Z,37.02
2018-02-24T11:28:35.120Z,37.1
2018-02-24T11:29:35.126Z,37.26
2018-02-24T11:30:35.404Z,37.19
2018-02-24T11:31:35.110Z,37.22
2018-02-24T11:32:35.121Z,37.34
2018-02-24T11:33:35.116Z,37.38
2018-02-24T11:34:35.146Z,37.4
2018-02-24T11:35:35.156Z,37.42
2018-02-24T11:36:35.106Z,37.42
2018-02-24T11:37:35.116Z,37.43
2018-02-24T11:38:35.110Z,37.51
2018-02-24T11:39:35.148Z,37.6
2018-02-24T11:40:35.178Z,37.58
2018-02-24T11:41:35.133Z,37.6
2018-02-24T11:42:35.380Z,37.73
2018-02-24T11:43:35.631Z,37.65
2018-02-24T11:44:35.107Z,37.62
2018-02-24T11:45:35.107Z,37.72
2018-02-24T11:46:35.609Z,37.72
2018-02-24T11:47:35.132Z,37.63
2018-02-24T11:48:35.115Z,37.5
2018-02-24T11:49:35.107Z,37.66
2018-02-24T11:50:35.153Z,37.98
2018-02-24T11:51:35.157Z,38.1
2018-02-24T11:52:35.142Z,38.12
2018-02-24T11:53:35.108Z,38.07
2018-02-24T11:54:24.648Z,39.28
2018-02-24T11:55:33.352Z,37.43
2018-02-24T11:56:32.875Z,37.96
2018-02-24T11:57:32.881Z,37.45
2018-02-24T11:58:32.934Z,37.37
2018-02-24T11:59:32.893Z,37.28
2018-02-24T12:00:18.813Z,37.45
2018-02-24T12:01:18.046Z,37.39
2018-02-24T12:02:18.061Z,37.39
2018-02-24T12:03:18.061Z,37.5
2018-02-24T12:04:18.050Z,37.25
2018-02-24T12:05:18.060Z,37.21
2018-02-24T12:06:18.049Z,37.22
2018-02-24T12:07:18.051Z,37.22
2018-02-24T12:08:18.039Z,37.18
2018-02-24T12:09:18.047Z,37.26
2018-02-24T12:10:18.053Z,37.29
2018-02-24T12:11:18.093Z,37.25
2018-02-24T12:11:58.417Z,37.25
2018-02-24T12:12:57.684Z,37.21
2018-02-24T12:13:57.684Z,37.21
2018-02-24T12:14:57.734Z,37.28
2018-02-24T12:16:14.130Z,37.28
2018-02-24T12:16:56.266Z,37.31
2018-02-24T12:17:55.906Z,37.24
2018-02-24T12:18:55.884Z,37.24
2018-02-24T12:19:55.886Z,37.23
2018-02-24T12:20:55.889Z,37.43
2018-02-24T12:21:55.925Z,37.32
2018-02-24T12:22:55.900Z,37.08
2018-02-24T12:23:55.882Z,37.08
2018-02-24T12:24:55.882Z,37.26
2018-02-24T12:25:55.906Z,37.25
2018-02-24T12:26:55.907Z,37.32
2018-02-24T12:27:55.956Z,37.37
2018-02-24T12:28:55.897Z,37.37
2018-02-24T12:29:55.919Z,37.36
2018-02-24T12:30:55.894Z,37.4
2018-02-24T12:31:55.911Z,37.33
2018-02-24T12:32:55.927Z,37.33
2018-02-24T12:33:55.904Z,37.34
2018-02-24T12:34:55.883Z,37.38
2018-02-24T12:35:55.886Z,37.41
2018-02-24T12:36:55.873Z,37.37
2018-02-24T12:37:55.870Z,37.34
2018-02-24T12:38:55.888Z,37.37
2018-02-24T12:39:55.873Z,37.38
2018-02-24T12:40:55.900Z,37.37
2018-02-24T12:41:55.918Z,37.34
2018-02-24T12:42:55.965Z,37.36
2018-02-24T12:43:55.880Z,37.36
2018-02-24T12:44:55.866Z,37.33
2018-02-24T12:45:55.881Z,37.36
2018-02-24T12:46:55.878Z,37.43
2018-02-24T12:47:55.880Z,37.36
2018-02-24T12:48:55.899Z,37.32
2018-02-24T12:49:56.894Z,37.32
2018-02-24T12:50:56.305Z,37.29
2018-02-24T12:51:55.860Z,37.42
2018-02-24T12:52:55.872Z,37.22
2018-02-24T12:53:55.883Z,37.31
2018-02-24T12:54:55.863Z,37.25